sensor_id;sensor_type;location;lat;lon;timestamp;P1;durP1;ratioP1;P2;durP2;ratioP2
13032;SDS011;6583;42.632;23.298;2023-04-30T00:00:53;8.30;;;6.30;;
13032;SDS011;6583;42.632;23.298;2023-04-30T00:03:20;7.17;;;5.53;;
13032;SDS011;6583;42.632;23.298;2023-04-30T00:05:50;6.40;;;5.20;;
13032;SDS011;6583;42.632;23.298;2023-04-30T00:08:17;4.77;;;4.30;;
13032;SDS011;6583;42.632;23.298;2023-04-30T00:10:43;6.80;;;4.97;;
13032;SDS011;6583;42.632;23.298;2023-04-30T00:13:10;6.80;;;5.00;;
13032;SDS011;6583;42.632;23.298;2023-04-30T00:15:38;6.27;;;5.13;;
13032;SDS011;6583;42.632;23.298;2023-04-30T00:18:04;6.23;;;5.10;;
13032;SDS011;6583;42.632;23.298;2023-04-30T00:20:32;7.23;;;5.20;;
13032;SDS011;6583;42.632;23.298;2023-04-30T00:23:00;5.37;;;4.73;;
13032;SDS011;6583;42.632;23.298;2023-04-30T00:25:27;5.67;;;5.07;;
13032;SDS011;6583;42.632;23.298;2023-04-30T00:27:53;6.70;;;5.27;;
13032;SDS011;6583;42.632;23.298;2023-04-30T00:30:20;6.27;;;5.00;;
13032;SDS011;6583;42.632;23.298;2023-04-30T00:32:47;6.27;;;5.27;;
13032;SDS011;6583;42.632;23.298;2023-04-30T00:35:13;5.60;;;4.70;;
13032;SDS011;6583;42.632;23.298;2023-04-30T00:37:40;6.80;;;5.30;;
13032;SDS011;6583;42.632;23.298;2023-04-30T00:40:09;6.87;;;5.53;;
13032;SDS011;6583;42.632;23.298;2023-04-30T00:42:36;6.83;;;5.10;;
13032;SDS011;6583;42.632;23.298;2023-04-30T00:45:03;6.47;;;5.00;;
13032;SDS011;6583;42.632;23.298;2023-04-30T00:47:30;7.20;;;5.70;;
13032;SDS011;6583;42.632;23.298;2023-04-30T00:49:57;6.27;;;5.47;;
13032;SDS011;6583;42.632;23.298;2023-04-30T00:52:24;6.97;;;5.13;;
13032;SDS011;6583;42.632;23.298;2023-04-30T00:54:50;5.67;;;5.07;;
13032;SDS011;6583;42.632;23.298;2023-04-30T00:57:19;6.70;;;5.10;;
13032;SDS011;6583;42.632;23.298;2023-04-30T00:59:47;8.00;;;5.27;;
13032;SDS011;6583;42.632;23.298;2023-04-30T01:02:14;6.50;;;4.73;;
13032;SDS011;6583;42.632;23.298;2023-04-30T01:04:41;6.20;;;5.13;;
13032;SDS011;6583;42.632;23.298;2023-04-30T01:07:08;5.40;;;4.40;;
13032;SDS011;6583;42.632;23.298;2023-04-30T01:09:35;5.40;;;4.43;;
13032;SDS011;6583;42.632;23.298;2023-04-30T01:12:05;4.60;;;4.20;;
13032;SDS011;6583;42.632;23.298;2023-04-30T01:14:39;4.80;;;4.27;;
13032;SDS011;6583;42.632;23.298;2023-04-30T01:17:19;4.53;;;4.13;;
13032;SDS011;6583;42.632;23.298;2023-04-30T01:19:52;6.27;;;4.40;;
13032;SDS011;6583;42.632;23.298;2023-04-30T01:22:24;5.27;;;4.60;;
13032;SDS011;6583;42.632;23.298;2023-04-30T01:25:05;6.73;;;5.23;;
13032;SDS011;6583;42.632;23.298;2023-04-30T01:27:51;5.40;;;4.90;;
13032;SDS011;6583;42.632;23.298;2023-04-30T01:30:26;5.43;;;4.93;;
13032;SDS011;6583;42.632;23.298;2023-04-30T01:32:55;5.77;;;4.70;;
13032;SDS011;6583;42.632;23.298;2023-04-30T01:35:22;7.03;;;4.90;;
13032;SDS011;6583;42.632;23.298;2023-04-30T01:37:58;5.70;;;4.83;;
13032;SDS011;6583;42.632;23.298;2023-04-30T01:40:36;5.73;;;4.80;;
13032;SDS011;6583;42.632;23.298;2023-04-30T01:43:11;5.80;;;4.97;;
13032;SDS011;6583;42.632;23.298;2023-04-30T01:45:48;6.83;;;5.00;;
13032;SDS011;6583;42.632;23.298;2023-04-30T01:48:30;6.13;;;5.33;;
13032;SDS011;6583;42.632;23.298;2023-04-30T01:51:07;7.20;;;5.40;;
13032;SDS011;6583;42.632;23.298;2023-04-30T01:53:40;6.80;;;5.47;;
13032;SDS011;6583;42.632;23.298;2023-04-30T01:56:10;6.27;;;5.50;;
13032;SDS011;6583;42.632;23.298;2023-04-30T01:58:44;6.83;;;5.57;;
13032;SDS011;6583;42.632;23.298;2023-04-30T02:01:24;5.90;;;5.27;;
13032;SDS011;6583;42.632;23.298;2023-04-30T02:03:52;8.57;;;5.57;;
13032;SDS011;6583;42.632;23.298;2023-04-30T02:06:18;6.00;;;5.40;;
13032;SDS011;6583;42.632;23.298;2023-04-30T02:08:45;9.87;;;6.23;;
13032;SDS011;6583;42.632;23.298;2023-04-30T02:11:12;8.37;;;5.77;;
13032;SDS011;6583;42.632;23.298;2023-04-30T02:13:38;6.90;;;5.77;;
13032;SDS011;6583;42.632;23.298;2023-04-30T02:16:06;7.27;;;5.43;;
13032;SDS011;6583;42.632;23.298;2023-04-30T02:18:33;7.43;;;5.57;;
13032;SDS011;6583;42.632;23.298;2023-04-30T02:21:00;7.67;;;5.63;;
13032;SDS011;6583;42.632;23.298;2023-04-30T02:23:26;7.33;;;5.53;;
13032;SDS011;6583;42.632;23.298;2023-04-30T02:25:53;8.33;;;6.43;;
13032;SDS011;6583;42.632;23.298;2023-04-30T02:28:20;6.77;;;5.43;;
13032;SDS011;6583;42.632;23.298;2023-04-30T02:30:46;7.47;;;6.00;;
13032;SDS011;6583;42.632;23.298;2023-04-30T02:33:14;7.00;;;5.87;;
13032;SDS011;6583;42.632;23.298;2023-04-30T02:35:41;7.77;;;6.00;;
13032;SDS011;6583;42.632;23.298;2023-04-30T02:38:08;7.20;;;6.00;;
13032;SDS011;6583;42.632;23.298;2023-04-30T02:40:34;6.47;;;5.57;;
13032;SDS011;6583;42.632;23.298;2023-04-30T02:43:01;8.23;;;5.67;;
13032;SDS011;6583;42.632;23.298;2023-04-30T02:45:30;6.70;;;6.07;;
13032;SDS011;6583;42.632;23.298;2023-04-30T02:47:57;7.10;;;6.00;;
13032;SDS011;6583;42.632;23.298;2023-04-30T02:50:25;6.33;;;5.73;;
13032;SDS011;6583;42.632;23.298;2023-04-30T02:52:51;7.10;;;5.93;;
13032;SDS011;6583;42.632;23.298;2023-04-30T02:55:20;7.40;;;5.70;;
13032;SDS011;6583;42.632;23.298;2023-04-30T02:57:46;6.50;;;5.83;;
13032;SDS011;6583;42.632;23.298;2023-04-30T03:00:13;6.93;;;6.00;;
13032;SDS011;6583;42.632;23.298;2023-04-30T03:02:40;6.37;;;5.47;;
13032;SDS011;6583;42.632;23.298;2023-04-30T03:05:07;7.10;;;6.00;;
13032;SDS011;6583;42.632;23.298;2023-04-30T03:07:35;6.53;;;5.93;;
13032;SDS011;6583;42.632;23.298;2023-04-30T03:10:06;8.57;;;5.83;;
13032;SDS011;6583;42.632;23.298;2023-04-30T03:12:33;6.80;;;5.60;;
13032;SDS011;6583;42.632;23.298;2023-04-30T03:15:00;6.57;;;5.87;;
13032;SDS011;6583;42.632;23.298;2023-04-30T03:17:26;7.33;;;6.33;;
13032;SDS011;6583;42.632;23.298;2023-04-30T03:19:53;8.67;;;6.50;;
13032;SDS011;6583;42.632;23.298;2023-04-30T03:22:20;8.00;;;6.60;;
13032;SDS011;6583;42.632;23.298;2023-04-30T03:24:49;7.43;;;6.33;;
13032;SDS011;6583;42.632;23.298;2023-04-30T03:27:15;8.63;;;6.77;;
13032;SDS011;6583;42.632;23.298;2023-04-30T03:29:42;9.27;;;6.73;;
13032;SDS011;6583;42.632;23.298;2023-04-30T03:32:09;7.97;;;6.60;;
13032;SDS011;6583;42.632;23.298;2023-04-30T03:34:35;8.60;;;7.10;;
13032;SDS011;6583;42.632;23.298;2023-04-30T03:37:05;9.03;;;6.90;;
13032;SDS011;6583;42.632;23.298;2023-04-30T03:39:31;7.87;;;6.67;;
13032;SDS011;6583;42.632;23.298;2023-04-30T03:41:59;10.53;;;7.30;;
13032;SDS011;6583;42.632;23.298;2023-04-30T03:44:27;8.77;;;7.20;;
13032;SDS011;6583;42.632;23.298;2023-04-30T03:46:54;8.73;;;7.20;;
13032;SDS011;6583;42.632;23.298;2023-04-30T03:49:21;8.80;;;7.03;;
13032;SDS011;6583;42.632;23.298;2023-04-30T03:51:47;8.53;;;7.00;;
13032;SDS011;6583;42.632;23.298;2023-04-30T03:54:14;10.03;;;7.37;;
13032;SDS011;6583;42.632;23.298;2023-04-30T03:56:41;9.73;;;7.47;;
13032;SDS011;6583;42.632;23.298;2023-04-30T03:59:09;8.47;;;7.57;;
13032;SDS011;6583;42.632;23.298;2023-04-30T04:01:36;20.27;;;8.07;;
13032;SDS011;6583;42.632;23.298;2023-04-30T04:04:03;9.97;;;7.40;;
13032;SDS011;6583;42.632;23.298;2023-04-30T04:06:30;9.57;;;7.60;;
13032;SDS011;6583;42.632;23.298;2023-04-30T04:08:56;10.27;;;7.97;;
13032;SDS011;6583;42.632;23.298;2023-04-30T04:11:23;9.73;;;7.67;;
13032;SDS011;6583;42.632;23.298;2023-04-30T04:13:50;9.70;;;7.13;;
13032;SDS011;6583;42.632;23.298;2023-04-30T04:16:18;8.63;;;7.73;;
13032;SDS011;6583;42.632;23.298;2023-04-30T04:18:44;8.67;;;7.60;;
13032;SDS011;6583;42.632;23.298;2023-04-30T04:21:11;9.80;;;7.93;;
13032;SDS011;6583;42.632;23.298;2023-04-30T04:23:38;10.03;;;7.90;;
13032;SDS011;6583;42.632;23.298;2023-04-30T04:26:04;10.47;;;8.63;;
13032;SDS011;6583;42.632;23.298;2023-04-30T04:28:31;11.33;;;9.20;;
13032;SDS011;6583;42.632;23.298;2023-04-30T04:30:58;10.77;;;9.03;;
13032;SDS011;6583;42.632;23.298;2023-04-30T04:33:26;11.47;;;9.50;;
13032;SDS011;6583;42.632;23.298;2023-04-30T04:35:52;13.20;;;9.47;;
13032;SDS011;6583;42.632;23.298;2023-04-30T04:38:21;12.10;;;9.70;;
13032;SDS011;6583;42.632;23.298;2023-04-30T04:40:52;11.67;;;9.67;;
13032;SDS011;6583;42.632;23.298;2023-04-30T04:43:19;10.30;;;9.20;;
13032;SDS011;6583;42.632;23.298;2023-04-30T04:45:45;10.70;;;9.60;;
13032;SDS011;6583;42.632;23.298;2023-04-30T04:48:13;11.87;;;10.13;;
13032;SDS011;6583;42.632;23.298;2023-04-30T04:50:41;13.77;;;12.17;;
13032;SDS011;6583;42.632;23.298;2023-04-30T04:53:07;14.47;;;11.60;;
13032;SDS011;6583;42.632;23.298;2023-04-30T04:55:34;14.80;;;11.50;;
13032;SDS011;6583;42.632;23.298;2023-04-30T04:58:01;13.00;;;10.20;;
13032;SDS011;6583;42.632;23.298;2023-04-30T05:00:27;11.97;;;10.23;;
13032;SDS011;6583;42.632;23.298;2023-04-30T05:02:54;13.07;;;10.30;;
13032;SDS011;6583;42.632;23.298;2023-04-30T05:05:21;11.83;;;9.37;;
13032;SDS011;6583;42.632;23.298;2023-04-30T05:07:49;11.30;;;10.10;;
13032;SDS011;6583;42.632;23.298;2023-04-30T05:10:16;17.33;;;12.73;;
13032;SDS011;6583;42.632;23.298;2023-04-30T05:12:43;16.07;;;11.43;;
13032;SDS011;6583;42.632;23.298;2023-04-30T05:15:10;26.83;;;15.03;;
13032;SDS011;6583;42.632;23.298;2023-04-30T05:17:36;18.70;;;12.57;;
13032;SDS011;6583;42.632;23.298;2023-04-30T05:20:04;19.23;;;14.03;;
13032;SDS011;6583;42.632;23.298;2023-04-30T05:22:31;19.47;;;14.80;;
13032;SDS011;6583;42.632;23.298;2023-04-30T05:25:00;21.80;;;15.90;;
13032;SDS011;6583;42.632;23.298;2023-04-30T05:27:26;21.27;;;15.37;;
13032;SDS011;6583;42.632;23.298;2023-04-30T05:29:53;21.23;;;14.53;;
13032;SDS011;6583;42.632;23.298;2023-04-30T05:32:21;20.33;;;15.10;;
13032;SDS011;6583;42.632;23.298;2023-04-30T05:34:47;32.87;;;19.87;;
13032;SDS011;6583;42.632;23.298;2023-04-30T05:37:14;23.73;;;14.50;;
13032;SDS011;6583;42.632;23.298;2023-04-30T05:39:41;18.33;;;12.53;;
13032;SDS011;6583;42.632;23.298;2023-04-30T05:42:09;15.87;;;11.60;;
13032;SDS011;6583;42.632;23.298;2023-04-30T05:44:36;16.00;;;12.17;;
13032;SDS011;6583;42.632;23.298;2023-04-30T05:47:03;18.57;;;12.47;;
13032;SDS011;6583;42.632;23.298;2023-04-30T05:49:29;12.63;;;10.57;;
13032;SDS011;6583;42.632;23.298;2023-04-30T05:51:56;13.23;;;10.97;;
13032;SDS011;6583;42.632;23.298;2023-04-30T05:54:22;11.23;;;9.90;;
13032;SDS011;6583;42.632;23.298;2023-04-30T05:56:49;13.20;;;10.13;;
13032;SDS011;6583;42.632;23.298;2023-04-30T05:59:17;14.47;;;10.33;;
13032;SDS011;6583;42.632;23.298;2023-04-30T06:01:44;11.30;;;10.00;;
13032;SDS011;6583;42.632;23.298;2023-04-30T06:04:11;15.47;;;10.70;;
13032;SDS011;6583;42.632;23.298;2023-04-30T06:06:37;13.07;;;11.63;;
13032;SDS011;6583;42.632;23.298;2023-04-30T06:09:04;14.70;;;11.10;;
13032;SDS011;6583;42.632;23.298;2023-04-30T06:11:31;14.83;;;12.03;;
13032;SDS011;6583;42.632;23.298;2023-04-30T06:13:57;17.07;;;12.80;;
13032;SDS011;6583;42.632;23.298;2023-04-30T06:16:26;15.93;;;13.40;;
13032;SDS011;6583;42.632;23.298;2023-04-30T06:18:52;16.87;;;13.77;;
13032;SDS011;6583;42.632;23.298;2023-04-30T06:21:19;15.37;;;13.27;;
13032;SDS011;6583;42.632;23.298;2023-04-30T06:23:45;20.33;;;13.63;;
13032;SDS011;6583;42.632;23.298;2023-04-30T06:26:12;17.20;;;13.93;;
13032;SDS011;6583;42.632;23.298;2023-04-30T06:28:39;19.43;;;14.40;;
13032;SDS011;6583;42.632;23.298;2023-04-30T06:31:06;17.47;;;13.97;;
13032;SDS011;6583;42.632;23.298;2023-04-30T06:33:34;16.93;;;14.10;;
13032;SDS011;6583;42.632;23.298;2023-04-30T06:36:01;19.40;;;15.33;;
13032;SDS011;6583;42.632;23.298;2023-04-30T06:38:27;18.73;;;15.30;;
13032;SDS011;6583;42.632;23.298;2023-04-30T06:40:54;20.53;;;15.20;;
13032;SDS011;6583;42.632;23.298;2023-04-30T06:43:21;18.07;;;15.50;;
13032;SDS011;6583;42.632;23.298;2023-04-30T06:45:48;18.27;;;15.20;;
13032;SDS011;6583;42.632;23.298;2023-04-30T06:48:14;19.03;;;14.60;;
13032;SDS011;6583;42.632;23.298;2023-04-30T06:50:42;16.73;;;14.73;;
13032;SDS011;6583;42.632;23.298;2023-04-30T06:53:09;18.00;;;14.53;;
13032;SDS011;6583;42.632;23.298;2023-04-30T06:55:36;16.37;;;14.03;;
13032;SDS011;6583;42.632;23.298;2023-04-30T06:58:03;16.00;;;14.23;;
13032;SDS011;6583;42.632;23.298;2023-04-30T07:00:30;18.50;;;14.27;;
13032;SDS011;6583;42.632;23.298;2023-04-30T07:02:57;16.60;;;14.30;;
13032;SDS011;6583;42.632;23.298;2023-04-30T07:05:26;16.40;;;13.83;;
13032;SDS011;6583;42.632;23.298;2023-04-30T07:07:54;15.53;;;13.80;;
13032;SDS011;6583;42.632;23.298;2023-04-30T07:10:21;16.57;;;13.47;;
13032;SDS011;6583;42.632;23.298;2023-04-30T07:12:48;14.97;;;12.30;;
13032;SDS011;6583;42.632;23.298;2023-04-30T07:15:15;21.70;;;12.77;;
13032;SDS011;6583;42.632;23.298;2023-04-30T07:17:41;14.63;;;10.87;;
13032;SDS011;6583;42.632;23.298;2023-04-30T07:20:08;11.60;;;10.37;;
13032;SDS011;6583;42.632;23.298;2023-04-30T07:22:36;13.13;;;9.40;;
13032;SDS011;6583;42.632;23.298;2023-04-30T07:25:04;10.40;;;9.03;;
13032;SDS011;6583;42.632;23.298;2023-04-30T07:27:32;11.13;;;8.57;;
13032;SDS011;6583;42.632;23.298;2023-04-30T07:29:58;8.43;;;7.20;;
13032;SDS011;6583;42.632;23.298;2023-04-30T07:32:25;8.53;;;6.50;;
13032;SDS011;6583;42.632;23.298;2023-04-30T07:34:51;10.50;;;8.30;;
13032;SDS011;6583;42.632;23.298;2023-04-30T07:37:18;10.70;;;7.87;;
13032;SDS011;6583;42.632;23.298;2023-04-30T07:39:45;8.20;;;5.90;;
13032;SDS011;6583;42.632;23.298;2023-04-30T07:42:14;7.17;;;5.67;;
13032;SDS011;6583;42.632;23.298;2023-04-30T07:44:40;7.73;;;6.13;;
13032;SDS011;6583;42.632;23.298;2023-04-30T07:47:07;9.67;;;5.90;;
13032;SDS011;6583;42.632;23.298;2023-04-30T07:49:34;8.03;;;5.83;;
13032;SDS011;6583;42.632;23.298;2023-04-30T07:52:00;8.67;;;5.87;;
13032;SDS011;6583;42.632;23.298;2023-04-30T07:54:27;7.33;;;5.60;;
13032;SDS011;6583;42.632;23.298;2023-04-30T07:56:54;9.23;;;5.47;;
13032;SDS011;6583;42.632;23.298;2023-04-30T07:59:22;13.43;;;9.47;;
13032;SDS011;6583;42.632;23.298;2023-04-30T08:01:49;17.77;;;11.60;;
13032;SDS011;6583;42.632;23.298;2023-04-30T08:04:16;16.03;;;10.23;;
13032;SDS011;6583;42.632;23.298;2023-04-30T08:06:42;12.33;;;8.20;;
13032;SDS011;6583;42.632;23.298;2023-04-30T08:09:09;7.93;;;6.50;;
13032;SDS011;6583;42.632;23.298;2023-04-30T08:11:36;6.47;;;5.50;;
13032;SDS011;6583;42.632;23.298;2023-04-30T08:14:02;6.10;;;5.20;;
13032;SDS011;6583;42.632;23.298;2023-04-30T08:16:32;6.00;;;5.50;;
13032;SDS011;6583;42.632;23.298;2023-04-30T08:18:59;6.47;;;4.80;;
13032;SDS011;6583;42.632;23.298;2023-04-30T08:21:26;8.30;;;5.80;;
13032;SDS011;6583;42.632;23.298;2023-04-30T08:23:53;5.47;;;4.70;;
13032;SDS011;6583;42.632;23.298;2023-04-30T08:26:19;6.63;;;5.13;;
13032;SDS011;6583;42.632;23.298;2023-04-30T08:28:47;7.03;;;5.73;;
13032;SDS011;6583;42.632;23.298;2023-04-30T08:31:13;8.30;;;6.27;;
13032;SDS011;6583;42.632;23.298;2023-04-30T08:33:41;6.23;;;5.63;;
13032;SDS011;6583;42.632;23.298;2023-04-30T08:36:08;6.30;;;5.80;;
13032;SDS011;6583;42.632;23.298;2023-04-30T08:38:35;6.07;;;5.10;;
13032;SDS011;6583;42.632;23.298;2023-04-30T08:41:03;7.70;;;5.07;;
13032;SDS011;6583;42.632;23.298;2023-04-30T08:43:36;6.70;;;5.80;;
13032;SDS011;6583;42.632;23.298;2023-04-30T08:46:03;5.23;;;4.73;;
13032;SDS011;6583;42.632;23.298;2023-04-30T08:48:30;5.53;;;4.90;;
13032;SDS011;6583;42.632;23.298;2023-04-30T08:50:59;5.13;;;4.10;;
13032;SDS011;6583;42.632;23.298;2023-04-30T08:53:26;3.83;;;3.53;;
13032;SDS011;6583;42.632;23.298;2023-04-30T08:55:53;4.67;;;4.27;;
13032;SDS011;6583;42.632;23.298;2023-04-30T08:58:20;4.73;;;4.30;;
13032;SDS011;6583;42.632;23.298;2023-04-30T09:00:46;5.17;;;4.53;;
13032;SDS011;6583;42.632;23.298;2023-04-30T09:03:13;5.93;;;5.03;;
13032;SDS011;6583;42.632;23.298;2023-04-30T09:05:40;5.30;;;4.80;;
13032;SDS011;6583;42.632;23.298;2023-04-30T09:08:08;5.73;;;4.93;;
13032;SDS011;6583;42.632;23.298;2023-04-30T09:10:35;6.10;;;4.90;;
13032;SDS011;6583;42.632;23.298;2023-04-30T09:13:02;5.97;;;4.90;;
13032;SDS011;6583;42.632;23.298;2023-04-30T09:15:30;5.67;;;4.90;;
13032;SDS011;6583;42.632;23.298;2023-04-30T09:18:08;5.87;;;5.03;;
13032;SDS011;6583;42.632;23.298;2023-04-30T09:20:36;5.53;;;5.10;;
13032;SDS011;6583;42.632;23.298;2023-04-30T09:23:08;5.50;;;4.97;;
13032;SDS011;6583;42.632;23.298;2023-04-30T09:25:38;5.57;;;4.80;;
13032;SDS011;6583;42.632;23.298;2023-04-30T09:28:07;6.45;;;4.90;;
13032;SDS011;6583;42.632;23.298;2023-04-30T09:30:34;6.07;;;5.10;;
13032;SDS011;6583;42.632;23.298;2023-04-30T09:33:01;4.75;;;4.32;;
13032;SDS011;6583;42.632;23.298;2023-04-30T09:35:28;4.80;;;4.40;;
13032;SDS011;6583;42.632;23.298;2023-04-30T09:37:57;4.93;;;4.53;;
13032;SDS011;6583;42.632;23.298;2023-04-30T09:40:35;4.78;;;4.38;;
13032;SDS011;6583;42.632;23.298;2023-04-30T09:43:04;5.32;;;4.82;;
13032;SDS011;6583;42.632;23.298;2023-04-30T09:45:38;4.85;;;4.40;;
13032;SDS011;6583;42.632;23.298;2023-04-30T09:48:07;4.57;;;4.00;;
13032;SDS011;6583;42.632;23.298;2023-04-30T09:50:36;4.38;;;4.05;;
13032;SDS011;6583;42.632;23.298;2023-04-30T09:53:04;5.03;;;4.63;;
13032;SDS011;6583;42.632;23.298;2023-04-30T09:55:32;4.53;;;4.18;;
13032;SDS011;6583;42.632;23.298;2023-04-30T09:58:02;4.95;;;4.30;;
13032;SDS011;6583;42.632;23.298;2023-04-30T10:00:31;4.60;;;4.20;;
13032;SDS011;6583;42.632;23.298;2023-04-30T10:03:00;4.60;;;4.20;;
13032;SDS011;6583;42.632;23.298;2023-04-30T10:05:35;5.68;;;4.70;;
13032;SDS011;6583;42.632;23.298;2023-04-30T10:08:04;4.93;;;4.57;;
13032;SDS011;6583;42.632;23.298;2023-04-30T10:10:34;5.40;;;5.00;;
13032;SDS011;6583;42.632;23.298;2023-04-30T10:13:05;5.28;;;4.78;;
13032;SDS011;6583;42.632;23.298;2023-04-30T10:15:37;4.93;;;4.53;;
13032;SDS011;6583;42.632;23.298;2023-04-30T10:18:10;5.13;;;4.63;;
13032;SDS011;6583;42.632;23.298;2023-04-30T10:20:42;4.70;;;4.30;;
13032;SDS011;6583;42.632;23.298;2023-04-30T10:23:13;4.43;;;4.13;;
13032;SDS011;6583;42.632;23.298;2023-04-30T10:25:40;4.43;;;4.03;;
13032;SDS011;6583;42.632;23.298;2023-04-30T10:28:09;5.10;;;4.67;;
13032;SDS011;6583;42.632;23.298;2023-04-30T10:30:36;5.00;;;4.50;;
13032;SDS011;6583;42.632;23.298;2023-04-30T10:33:05;6.30;;;5.20;;
13032;SDS011;6583;42.632;23.298;2023-04-30T10:35:39;8.10;;;5.60;;
13032;SDS011;6583;42.632;23.298;2023-04-30T10:38:16;6.83;;;6.23;;
13032;SDS011;6583;42.632;23.298;2023-04-30T10:40:47;7.77;;;6.73;;
13032;SDS011;6583;42.632;23.298;2023-04-30T10:43:17;7.03;;;6.43;;
13032;SDS011;6583;42.632;23.298;2023-04-30T10:45:46;9.57;;;6.73;;
13032;SDS011;6583;42.632;23.298;2023-04-30T10:48:13;7.00;;;6.30;;
13032;SDS011;6583;42.632;23.298;2023-04-30T10:50:41;8.77;;;7.70;;
13032;SDS011;6583;42.632;23.298;2023-04-30T10:53:11;7.67;;;6.90;;
13032;SDS011;6583;42.632;23.298;2023-04-30T10:55:44;8.07;;;7.27;;
13032;SDS011;6583;42.632;23.298;2023-04-30T11:01:01;8.13;;;6.87;;
13032;SDS011;6583;42.632;23.298;2023-04-30T11:03:29;5.13;;;4.67;;
13032;SDS011;6583;42.632;23.298;2023-04-30T11:05:57;4.50;;;4.10;;
13032;SDS011;6583;42.632;23.298;2023-04-30T11:08:31;4.73;;;4.33;;
13032;SDS011;6583;42.632;23.298;2023-04-30T11:10:59;4.27;;;3.93;;
13032;SDS011;6583;42.632;23.298;2023-04-30T11:13:27;4.57;;;4.20;;
13032;SDS011;6583;42.632;23.298;2023-04-30T11:16:03;4.33;;;3.93;;
13032;SDS011;6583;42.632;23.298;2023-04-30T11:18:30;4.73;;;4.33;;
13032;SDS011;6583;42.632;23.298;2023-04-30T11:20:57;5.40;;;4.90;;
13032;SDS011;6583;42.632;23.298;2023-04-30T11:23:24;5.53;;;5.03;;
13032;SDS011;6583;42.632;23.298;2023-04-30T11:25:53;6.17;;;5.20;;
13032;SDS011;6583;42.632;23.298;2023-04-30T11:28:22;5.43;;;4.93;;
13032;SDS011;6583;42.632;23.298;2023-04-30T11:30:51;5.43;;;4.73;;
13032;SDS011;6583;42.632;23.298;2023-04-30T11:33:19;5.23;;;4.83;;
13032;SDS011;6583;42.632;23.298;2023-04-30T11:35:47;7.03;;;5.47;;
13032;SDS011;6583;42.632;23.298;2023-04-30T11:38:16;5.67;;;4.50;;
13032;SDS011;6583;42.632;23.298;2023-04-30T11:40:45;5.17;;;4.70;;
13032;SDS011;6583;42.632;23.298;2023-04-30T11:43:19;4.90;;;4.50;;
13032;SDS011;6583;42.632;23.298;2023-04-30T11:45:58;5.87;;;4.73;;
13032;SDS011;6583;42.632;23.298;2023-04-30T11:48:30;4.77;;;4.27;;
13032;SDS011;6583;42.632;23.298;2023-04-30T11:50:57;5.40;;;4.00;;
13032;SDS011;6583;42.632;23.298;2023-04-30T11:53:27;4.82;;;4.25;;
13032;SDS011;6583;42.632;23.298;2023-04-30T11:55:55;4.30;;;4.00;;
13032;SDS011;6583;42.632;23.298;2023-04-30T11:58:21;4.47;;;4.10;;
13032;SDS011;6583;42.632;23.298;2023-04-30T12:00:49;5.03;;;4.20;;
13032;SDS011;6583;42.632;23.298;2023-04-30T12:03:18;5.25;;;4.85;;
13032;SDS011;6583;42.632;23.298;2023-04-30T12:05:45;6.57;;;5.93;;
13032;SDS011;6583;42.632;23.298;2023-04-30T12:08:12;7.03;;;6.32;;
13032;SDS011;6583;42.632;23.298;2023-04-30T12:10:39;4.50;;;4.10;;
13032;SDS011;6583;42.632;23.298;2023-04-30T12:13:06;5.80;;;4.87;;
13032;SDS011;6583;42.632;23.298;2023-04-30T12:15:32;5.17;;;4.73;;
13032;SDS011;6583;42.632;23.298;2023-04-30T12:17:59;5.33;;;4.67;;
13032;SDS011;6583;42.632;23.298;2023-04-30T12:20:38;6.80;;;6.18;;
13032;SDS011;6583;42.632;23.298;2023-04-30T12:23:06;5.38;;;4.82;;
13032;SDS011;6583;42.632;23.298;2023-04-30T12:25:38;5.23;;;4.73;;
13032;SDS011;6583;42.632;23.298;2023-04-30T12:28:06;5.43;;;4.90;;
13032;SDS011;6583;42.632;23.298;2023-04-30T12:30:33;5.20;;;4.70;;
13032;SDS011;6583;42.632;23.298;2023-04-30T12:33:00;5.67;;;5.17;;
13032;SDS011;6583;42.632;23.298;2023-04-30T12:35:28;6.03;;;5.50;;
13032;SDS011;6583;42.632;23.298;2023-04-30T12:38:02;5.10;;;4.60;;
13032;SDS011;6583;42.632;23.298;2023-04-30T12:40:30;5.80;;;5.20;;
13032;SDS011;6583;42.632;23.298;2023-04-30T12:43:00;5.80;;;4.80;;
13032;SDS011;6583;42.632;23.298;2023-04-30T12:45:43;5.47;;;4.80;;
13032;SDS011;6583;42.632;23.298;2023-04-30T12:48:11;4.93;;;3.80;;
13032;SDS011;6583;42.632;23.298;2023-04-30T12:50:39;5.43;;;3.93;;
13032;SDS011;6583;42.632;23.298;2023-04-30T12:53:07;5.40;;;4.37;;
13032;SDS011;6583;42.632;23.298;2023-04-30T12:55:34;3.83;;;3.40;;
13032;SDS011;6583;42.632;23.298;2023-04-30T12:58:06;5.23;;;4.17;;
13032;SDS011;6583;42.632;23.298;2023-04-30T13:00:46;5.30;;;4.13;;
13032;SDS011;6583;42.632;23.298;2023-04-30T13:03:15;5.07;;;3.70;;
13032;SDS011;6583;42.632;23.298;2023-04-30T13:05:45;4.63;;;3.90;;
13032;SDS011;6583;42.632;23.298;2023-04-30T13:08:15;4.97;;;4.57;;
13032;SDS011;6583;42.632;23.298;2023-04-30T13:10:42;4.17;;;3.87;;
13032;SDS011;6583;42.632;23.298;2023-04-30T13:13:09;4.20;;;3.80;;
13032;SDS011;6583;42.632;23.298;2023-04-30T13:15:36;5.07;;;4.30;;
13032;SDS011;6583;42.632;23.298;2023-04-30T13:18:02;4.87;;;3.77;;
13032;SDS011;6583;42.632;23.298;2023-04-30T13:20:29;4.80;;;4.30;;
13032;SDS011;6583;42.632;23.298;2023-04-30T13:22:56;4.43;;;4.03;;
13032;SDS011;6583;42.632;23.298;2023-04-30T13:25:24;6.50;;;3.97;;
13032;SDS011;6583;42.632;23.298;2023-04-30T13:27:51;5.00;;;4.43;;
13032;SDS011;6583;42.632;23.298;2023-04-30T13:30:17;5.27;;;4.70;;
13032;SDS011;6583;42.632;23.298;2023-04-30T13:32:44;4.67;;;4.27;;
13032;SDS011;6583;42.632;23.298;2023-04-30T13:35:11;4.67;;;4.27;;
13032;SDS011;6583;42.632;23.298;2023-04-30T13:37:38;5.60;;;4.30;;
13032;SDS011;6583;42.632;23.298;2023-04-30T13:40:05;4.17;;;3.80;;
13032;SDS011;6583;42.632;23.298;2023-04-30T13:42:35;7.40;;;3.90;;
13032;SDS011;6583;42.632;23.298;2023-04-30T13:45:02;4.83;;;4.20;;
13032;SDS011;6583;42.632;23.298;2023-04-30T13:47:29;4.60;;;4.20;;
13032;SDS011;6583;42.632;23.298;2023-04-30T13:49:56;5.00;;;4.60;;
13032;SDS011;6583;42.632;23.298;2023-04-30T13:52:23;4.33;;;4.03;;
13032;SDS011;6583;42.632;23.298;2023-04-30T13:54:49;5.20;;;4.27;;
13032;SDS011;6583;42.632;23.298;2023-04-30T13:57:17;5.30;;;4.20;;
13032;SDS011;6583;42.632;23.298;2023-04-30T13:59:45;6.65;;;4.47;;
13032;SDS011;6583;42.632;23.298;2023-04-30T14:02:12;6.67;;;4.60;;
13032;SDS011;6583;42.632;23.298;2023-04-30T14:04:38;4.78;;;4.30;;
13032;SDS011;6583;42.632;23.298;2023-04-30T14:07:05;4.75;;;4.13;;
13032;SDS011;6583;42.632;23.298;2023-04-30T14:09:32;3.85;;;3.50;;
13032;SDS011;6583;42.632;23.298;2023-04-30T14:11:58;3.78;;;3.30;;
13032;SDS011;6583;42.632;23.298;2023-04-30T14:14:25;4.10;;;3.50;;
13032;SDS011;6583;42.632;23.298;2023-04-30T14:16:53;3.95;;;3.15;;
13032;SDS011;6583;42.632;23.298;2023-04-30T14:19:20;4.05;;;3.65;;
13032;SDS011;6583;42.632;23.298;2023-04-30T14:21:47;4.93;;;3.07;;
13032;SDS011;6583;42.632;23.298;2023-04-30T14:24:14;3.50;;;3.20;;
13032;SDS011;6583;42.632;23.298;2023-04-30T14:26:42;3.45;;;3.17;;
13032;SDS011;6583;42.632;23.298;2023-04-30T14:29:09;3.55;;;3.15;;
13032;SDS011;6583;42.632;23.298;2023-04-30T14:31:36;4.38;;;3.83;;
13032;SDS011;6583;42.632;23.298;2023-04-30T14:34:04;3.83;;;3.53;;
13032;SDS011;6583;42.632;23.298;2023-04-30T14:36:32;3.95;;;3.40;;
13032;SDS011;6583;42.632;23.298;2023-04-30T14:38:59;3.60;;;3.30;;
13032;SDS011;6583;42.632;23.298;2023-04-30T14:41:27;3.30;;;3.10;;
13032;SDS011;6583;42.632;23.298;2023-04-30T14:43:54;5.45;;;3.30;;
13032;SDS011;6583;42.632;23.298;2023-04-30T14:46:21;3.72;;;3.15;;
13032;SDS011;6583;42.632;23.298;2023-04-30T14:48:47;4.20;;;3.42;;
13032;SDS011;6583;42.632;23.298;2023-04-30T14:51:15;3.97;;;3.63;;